sensor_id;sensor_type;location;lat;lon;timestamp;temperature;humidity
49385;DHT22;36795;45.028;38.968;2022-12-18T00:00:42;11.00;77.30
49385;DHT22;36795;45.028;38.968;2022-12-18T00:03:28;11.00;77.30
49385;DHT22;36795;45.028;38.968;2022-12-18T00:06:14;11.00;77.10
49385;DHT22;36795;45.028;38.968;2022-12-18T00:09:03;11.00;77.20
49385;DHT22;36795;45.028;38.968;2022-12-18T00:11:49;10.90;77.30
49385;DHT22;36795;45.028;38.968;2022-12-18T00:14:35;10.90;77.50
49385;DHT22;36795;45.028;38.968;2022-12-18T00:17:22;10.80;77.70
49385;DHT22;36795;45.028;38.968;2022-12-18T00:20:08;10.80;77.90
49385;DHT22;36795;45.028;38.968;2022-12-18T00:22:55;10.80;78.10
49385;DHT22;36795;45.028;38.968;2022-12-18T00:25:41;10.70;78.30
49385;DHT22;36795;45.028;38.968;2022-12-18T00:28:27;10.70;78.40
49385;DHT22;36795;45.028;38.968;2022-12-18T00:31:17;10.70;78.40
49385;DHT22;36795;45.028;38.968;2022-12-18T00:34:03;10.70;78.50
49385;DHT22;36795;45.028;38.968;2022-12-18T00:36:49;10.60;78.50
49385;DHT22;36795;45.028;38.968;2022-12-18T00:39:35;10.60;78.70
49385;DHT22;36795;45.028;38.968;2022-12-18T00:42:21;10.50;78.70
49385;DHT22;36795;45.028;38.968;2022-12-18T00:45:26;10.50;78.70
49385;DHT22;36795;45.028;38.968;2022-12-18T00:48:13;10.50;78.60
49385;DHT22;36795;45.028;38.968;2022-12-18T00:50:59;10.40;79.10
49385;DHT22;36795;45.028;38.968;2022-12-18T00:53:45;10.40;79.20
49385;DHT22;36795;45.028;38.968;2022-12-18T00:56:31;10.30;79.30
49385;DHT22;36795;45.028;38.968;2022-12-18T00:59:18;10.30;79.40
49385;DHT22;36795;45.028;38.968;2022-12-18T01:02:04;10.30;79.50
49385;DHT22;36795;45.028;38.968;2022-12-18T01:04:50;10.20;79.60
49385;DHT22;36795;45.028;38.968;2022-12-18T01:07:38;10.20;79.70
49385;DHT22;36795;45.028;38.968;2022-12-18T01:10:25;10.20;79.80
49385;DHT22;36795;45.028;38.968;2022-12-18T01:13:11;10.20;79.90
49385;DHT22;36795;45.028;38.968;2022-12-18T01:15:57;10.20;80.00
49385;DHT22;36795;45.028;38.968;2022-12-18T01:18:45;10.10;80.00
49385;DHT22;36795;45.028;38.968;2022-12-18T01:21:31;10.10;80.30
49385;DHT22;36795;45.028;38.968;2022-12-18T01:24:22;10.10;80.40
49385;DHT22;36795;45.028;38.968;2022-12-18T01:27:08;10.20;80.60
49385;DHT22;36795;45.028;38.968;2022-12-18T01:29:54;10.20;80.50
49385;DHT22;36795;45.028;38.968;2022-12-18T01:32:40;10.20;80.40
49385;DHT22;36795;45.028;38.968;2022-12-18T01:35:26;10.20;80.40
49385;DHT22;36795;45.028;38.968;2022-12-18T01:38:13;10.20;80.50
49385;DHT22;36795;45.028;38.968;2022-12-18T01:41:00;10.20;80.40
49385;DHT22;36795;45.028;38.968;2022-12-18T01:43:48;10.20;80.70
49385;DHT22;36795;45.028;38.968;2022-12-18T01:46:35;10.20;80.80
49385;DHT22;36795;45.028;38.968;2022-12-18T01:49:21;10.20;81.40
49385;DHT22;36795;45.028;38.968;2022-12-18T01:52:07;10.20;80.90
49385;DHT22;36795;45.028;38.968;2022-12-18T01:54:55;10.20;80.90
49385;DHT22;36795;45.028;38.968;2022-12-18T01:57:41;10.20;80.80
49385;DHT22;36795;45.028;38.968;2022-12-18T02:00:28;10.30;80.80
49385;DHT22;36795;45.028;38.968;2022-12-18T02:03:15;10.40;80.70
49385;DHT22;36795;45.028;38.968;2022-12-18T02:06:20;10.50;80.30
49385;DHT22;36795;45.028;38.968;2022-12-18T02:17:52;11.10;78.40
49385;DHT22;36795;45.028;38.968;2022-12-18T02:27:12;11.10;77.60
49385;DHT22;36795;45.028;38.968;2022-12-18T02:30:01;11.00;77.50
49385;DHT22;36795;45.028;38.968;2022-12-18T02:32:52;10.90;77.60
49385;DHT22;36795;45.028;38.968;2022-12-18T02:35:40;10.80;77.70
49385;DHT22;36795;45.028;38.968;2022-12-18T02:38:27;10.70;77.90
49385;DHT22;36795;45.028;38.968;2022-12-18T02:41:16;10.70;78.00
49385;DHT22;36795;45.028;38.968;2022-12-18T02:44:10;10.60;78.10
49385;DHT22;36795;45.028;38.968;2022-12-18T02:46:56;10.60;78.30
49385;DHT22;36795;45.028;38.968;2022-12-18T02:56:35;10.60;78.70
49385;DHT22;36795;45.028;38.968;2022-12-18T02:59:33;10.60;78.60
49385;DHT22;36795;45.028;38.968;2022-12-18T03:03:08;10.60;78.50
49385;DHT22;36795;45.028;38.968;2022-12-18T03:06:00;10.60;78.50
49385;DHT22;36795;45.028;38.968;2022-12-18T03:08:51;10.60;78.50
49385;DHT22;36795;45.028;38.968;2022-12-18T03:11:42;10.50;78.70
49385;DHT22;36795;45.028;38.968;2022-12-18T03:15:22;10.50;78.70
49385;DHT22;36795;45.028;38.968;2022-12-18T03:18:12;10.30;78.80
49385;DHT22;36795;45.028;38.968;2022-12-18T03:21:04;10.20;79.00
49385;DHT22;36795;45.028;38.968;2022-12-18T03:23:52;10.20;79.10
49385;DHT22;36795;45.028;38.968;2022-12-18T03:26:44;10.10;79.20
49385;DHT22;36795;45.028;38.968;2022-12-18T03:29:43;10.10;79.50
49385;DHT22;36795;45.028;38.968;2022-12-18T03:32:58;10.10;79.60
49385;DHT22;36795;45.028;38.968;2022-12-18T03:35:43;10.00;79.70
49385;DHT22;36795;45.028;38.968;2022-12-18T03:38:29;10.00;79.90
49385;DHT22;36795;45.028;38.968;2022-12-18T03:41:32;10.00;79.90
49385;DHT22;36795;45.028;38.968;2022-12-18T03:44:55;10.10;79.90
49385;DHT22;36795;45.028;38.968;2022-12-18T03:48:07;10.10;79.80
49385;DHT22;36795;45.028;38.968;2022-12-18T03:50:59;10.10;79.80
49385;DHT22;36795;45.028;38.968;2022-12-18T03:53:57;10.20;79.80
49385;DHT22;36795;45.028;38.968;2022-12-18T03:56:51;10.30;79.60
49385;DHT22;36795;45.028;38.968;2022-12-18T03:59:40;10.30;79.50
49385;DHT22;36795;45.028;38.968;2022-12-18T04:02:29;10.30;79.30
49385;DHT22;36795;45.028;38.968;2022-12-18T04:05:18;10.40;79.40
49385;DHT22;36795;45.028;38.968;2022-12-18T04:08:05;10.40;79.20
49385;DHT22;36795;45.028;38.968;2022-12-18T04:10:52;10.50;78.90
49385;DHT22;36795;45.028;38.968;2022-12-18T04:13:39;10.50;78.60
49385;DHT22;36795;45.028;38.968;2022-12-18T04:16:28;10.50;78.40
49385;DHT22;36795;45.028;38.968;2022-12-18T04:19:15;10.50;78.30
49385;DHT22;36795;45.028;38.968;2022-12-18T04:22:01;10.50;78.00
49385;DHT22;36795;45.028;38.968;2022-12-18T04:24:50;10.50;77.80
49385;DHT22;36795;45.028;38.968;2022-12-18T04:27:37;10.50;77.60
49385;DHT22;36795;45.028;38.968;2022-12-18T04:30:24;10.50;77.60
49385;DHT22;36795;45.028;38.968;2022-12-18T04:33:12;10.50;77.50
49385;DHT22;36795;45.028;38.968;2022-12-18T04:36:05;10.50;77.50
49385;DHT22;36795;45.028;38.968;2022-12-18T04:38:52;10.50;77.30
49385;DHT22;36795;45.028;38.968;2022-12-18T04:41:39;10.50;77.30
49385;DHT22;36795;45.028;38.968;2022-12-18T04:44:28;10.60;77.20
49385;DHT22;36795;45.028;38.968;2022-12-18T04:47:14;10.60;77.00
49385;DHT22;36795;45.028;38.968;2022-12-18T04:50:00;10.80;76.80
49385;DHT22;36795;45.028;38.968;2022-12-18T04:52:46;10.90;76.40
49385;DHT22;36795;45.028;38.968;2022-12-18T04:55:32;11.00;76.10
49385;DHT22;36795;45.028;38.968;2022-12-18T04:58:18;11.10;75.80
49385;DHT22;36795;45.028;38.968;2022-12-18T05:01:06;11.20;75.50
49385;DHT22;36795;45.028;38.968;2022-12-18T05:03:52;11.20;75.30
49385;DHT22;36795;45.028;38.968;2022-12-18T05:06:38;11.30;75.30
49385;DHT22;36795;45.028;38.968;2022-12-18T05:09:24;11.20;75.10
49385;DHT22;36795;45.028;38.968;2022-12-18T05:12:11;11.20;75.10
49385;DHT22;36795;45.028;38.968;2022-12-18T05:14:57;11.30;75.00
49385;DHT22;36795;45.028;38.968;2022-12-18T05:17:43;11.40;74.60
49385;DHT22;36795;45.028;38.968;2022-12-18T05:20:30;11.50;74.20
49385;DHT22;36795;45.028;38.968;2022-12-18T05:23:17;11.50;74.10
49385;DHT22;36795;45.028;38.968;2022-12-18T05:26:05;11.50;73.90
49385;DHT22;36795;45.028;38.968;2022-12-18T05:28:51;11.60;73.90
49385;DHT22;36795;45.028;38.968;2022-12-18T05:31:38;11.60;73.70
49385;DHT22;36795;45.028;38.968;2022-12-18T05:34:24;11.80;73.50
49385;DHT22;36795;45.028;38.968;2022-12-18T05:37:10;11.90;73.10
49385;DHT22;36795;45.028;38.968;2022-12-18T05:39:57;12.20;72.50
49385;DHT22;36795;45.028;38.968;2022-12-18T05:42:42;12.40;71.80
49385;DHT22;36795;45.028;38.968;2022-12-18T05:45:28;12.50;71.20
49385;DHT22;36795;45.028;38.968;2022-12-18T05:48:15;12.70;70.60
49385;DHT22;36795;45.028;38.968;2022-12-18T05:51:10;12.90;70.20
49385;DHT22;36795;45.028;38.968;2022-12-18T05:53:56;13.20;69.20
49385;DHT22;36795;45.028;38.968;2022-12-18T05:56:42;13.50;68.90
49385;DHT22;36795;45.028;38.968;2022-12-18T05:59:28;13.70;67.90
49385;DHT22;36795;45.028;38.968;2022-12-18T06:02:14;13.80;67.30
49385;DHT22;36795;45.028;38.968;2022-12-18T06:05:00;13.70;67.10
49385;DHT22;36795;45.028;38.968;2022-12-18T06:07:46;13.70;67.00
49385;DHT22;36795;45.028;38.968;2022-12-18T06:10:32;13.80;66.80
49385;DHT22;36795;45.028;38.968;2022-12-18T06:13:19;14.10;66.20
49385;DHT22;36795;45.028;38.968;2022-12-18T06:16:06;14.50;64.60
49385;DHT22;36795;45.028;38.968;2022-12-18T06:18:53;15.00;63.30
49385;DHT22;36795;45.028;38.968;2022-12-18T06:21:41;15.30;62.70
49385;DHT22;36795;45.028;38.968;2022-12-18T06:24:28;16.00;61.30
49385;DHT22;36795;45.028;38.968;2022-12-18T06:27:14;16.60;59.70
49385;DHT22;36795;45.028;38.968;2022-12-18T06:30:00;16.70;58.60
49385;DHT22;36795;45.028;38.968;2022-12-18T06:32:49;16.90;56.40
49385;DHT22;36795;45.028;38.968;2022-12-18T06:35:35;17.60;54.50
49385;DHT22;36795;45.028;38.968;2022-12-18T06:38:21;17.80;52.80
49385;DHT22;36795;45.028;38.968;2022-12-18T06:41:10;17.70;52.30
49385;DHT22;36795;45.028;38.968;2022-12-18T06:43:57;17.40;53.10
49385;DHT22;36795;45.028;38.968;2022-12-18T06:46:43;17.10;53.60
49385;DHT22;36795;45.028;38.968;2022-12-18T06:49:30;16.90;53.80
49385;DHT22;36795;45.028;38.968;2022-12-18T06:52:16;17.00;54.00
49385;DHT22;36795;45.028;38.968;2022-12-18T06:55:02;16.90;54.40
49385;DHT22;36795;45.028;38.968;2022-12-18T06:57:49;16.70;54.40
49385;DHT22;36795;45.028;38.968;2022-12-18T07:00:35;16.50;54.60
49385;DHT22;36795;45.028;38.968;2022-12-18T07:03:21;16.30;55.10
49385;DHT22;36795;45.028;38.968;2022-12-18T07:06:14;16.30;55.30
49385;DHT22;36795;45.028;38.968;2022-12-18T07:09:01;16.20;55.40
49385;DHT22;36795;45.028;38.968;2022-12-18T07:11:47;16.20;55.60
49385;DHT22;36795;45.028;38.968;2022-12-18T07:14:33;16.10;55.30
49385;DHT22;36795;45.028;38.968;2022-12-18T07:17:20;16.10;55.80
49385;DHT22;36795;45.028;38.968;2022-12-18T07:20:06;16.10;56.00
49385;DHT22;36795;45.028;38.968;2022-12-18T07:22:52;16.10;56.00
49385;DHT22;36795;45.028;38.968;2022-12-18T07:25:38;16.30;55.80
49385;DHT22;36795;45.028;38.968;2022-12-18T07:28:25;16.30;55.30
49385;DHT22;36795;45.028;38.968;2022-12-18T07:31:14;16.30;55.50
49385;DHT22;36795;45.028;38.968;2022-12-18T07:34:00;16.40;55.40
49385;DHT22;36795;45.028;38.968;2022-12-18T07:36:46;16.60;54.90
49385;DHT22;36795;45.028;38.968;2022-12-18T07:39:32;16.90;54.00
49385;DHT22;36795;45.028;38.968;2022-12-18T07:42:18;17.60;52.90
49385;DHT22;36795;45.028;38.968;2022-12-18T07:45:17;18.20;51.40
49385;DHT22;36795;45.028;38.968;2022-12-18T07:48:03;18.40;50.70
49385;DHT22;36795;45.028;38.968;2022-12-18T07:50:49;18.60;50.50
49385;DHT22;36795;45.028;38.968;2022-12-18T07:53:36;18.70;50.80
49385;DHT22;36795;45.028;38.968;2022-12-18T07:56:23;19.50;49.70
49385;DHT22;36795;45.028;38.968;2022-12-18T07:59:08;20.60;48.50
49385;DHT22;36795;45.028;38.968;2022-12-18T08:01:55;21.00;46.40
49385;DHT22;36795;45.028;38.968;2022-12-18T08:04:41;21.00;46.20
49385;DHT22;36795;45.028;38.968;2022-12-18T08:07:27;21.30;45.60
49385;DHT22;36795;45.028;38.968;2022-12-18T08:10:14;21.90;44.50
49385;DHT22;36795;45.028;38.968;2022-12-18T08:13:00;22.10;44.00
49385;DHT22;36795;45.028;38.968;2022-12-18T08:15:46;22.30;43.20
49385;DHT22;36795;45.028;38.968;2022-12-18T08:18:40;22.40;43.00
49385;DHT22;36795;45.028;38.968;2022-12-18T08:21:28;22.40;43.10
49385;DHT22;36795;45.028;38.968;2022-12-18T08:24:14;22.80;42.10
49385;DHT22;36795;45.028;38.968;2022-12-18T08:27:01;23.30;41.10
49385;DHT22;36795;45.028;38.968;2022-12-18T08:29:47;24.00;39.60
49385;DHT22;36795;45.028;38.968;2022-12-18T08:32:33;24.20;39.60
49385;DHT22;36795;45.028;38.968;2022-12-18T08:35:19;24.20;39.80
49385;DHT22;36795;45.028;38.968;2022-12-18T08:38:05;24.10;39.70
49385;DHT22;36795;45.028;38.968;2022-12-18T08:40:59;24.00;40.00
49385;DHT22;36795;45.028;38.968;2022-12-18T08:43:46;24.20;39.80
49385;DHT22;36795;45.028;38.968;2022-12-18T08:46:50;23.80;39.90
49385;DHT22;36795;45.028;38.968;2022-12-18T08:49:36;23.50;40.40
49385;DHT22;36795;45.028;38.968;2022-12-18T08:52:23;23.70;39.70
49385;DHT22;36795;45.028;38.968;2022-12-18T08:55:10;23.90;39.00
49385;DHT22;36795;45.028;38.968;2022-12-18T08:57:55;24.20;38.70
49385;DHT22;36795;45.028;38.968;2022-12-18T09:00:42;24.50;38.80
49385;DHT22;36795;45.028;38.968;2022-12-18T09:03:27;25.00;38.10
49385;DHT22;36795;45.028;38.968;2022-12-18T09:06:15;24.80;37.80
49385;DHT22;36795;45.028;38.968;2022-12-18T09:09:03;24.60;38.40
49385;DHT22;36795;45.028;38.968;2022-12-18T09:11:50;24.10;38.80
49385;DHT22;36795;45.028;38.968;2022-12-18T09:14:36;23.30;40.00
49385;DHT22;36795;45.028;38.968;2022-12-18T09:17:22;22.70;41.30
49385;DHT22;36795;45.028;38.968;2022-12-18T09:20:08;22.90;41.10
49385;DHT22;36795;45.028;38.968;2022-12-18T09:22:55;22.90;40.70
49385;DHT22;36795;45.028;38.968;2022-12-18T09:25:41;22.90;40.90
49385;DHT22;36795;45.028;38.968;2022-12-18T09:28:27;22.60;41.30
49385;DHT22;36795;45.028;38.968;2022-12-18T09:31:15;22.10;42.40
49385;DHT22;36795;45.028;38.968;2022-12-18T09:34:02;21.50;43.60
49385;DHT22;36795;45.028;38.968;2022-12-18T09:36:48;21.10;44.50
49385;DHT22;36795;45.028;38.968;2022-12-18T09:39:34;21.00;44.80
49385;DHT22;36795;45.028;38.968;2022-12-18T09:42:21;21.30;44.50
49385;DHT22;36795;45.028;38.968;2022-12-18T09:45:12;21.50;44.30
49385;DHT22;36795;45.028;38.968;2022-12-18T09:47:59;21.50;44.50
49385;DHT22;36795;45.028;38.968;2022-12-18T09:50:46;21.50;44.70
49385;DHT22;36795;45.028;38.968;2022-12-18T09:53:35;21.40;44.80
49385;DHT22;36795;45.028;38.968;2022-12-18T09:56:25;21.60;44.50
49385;DHT22;36795;45.028;38.968;2022-12-18T09:59:37;21.70;43.90
49385;DHT22;36795;45.028;38.968;2022-12-18T10:02:26;21.50;44.60
49385;DHT22;36795;45.028;38.968;2022-12-18T10:08:58;21.00;45.30
49385;DHT22;36795;45.028;38.968;2022-12-18T10:15:17;20.30;47.40
49385;DHT22;36795;45.028;38.968;2022-12-18T10:21:50;19.60;48.80
49385;DHT22;36795;45.028;38.968;2022-12-18T10:25:02;19.30;49.80
49385;DHT22;36795;45.028;38.968;2022-12-18T10:27:55;19.00;50.50
49385;DHT22;36795;45.028;38.968;2022-12-18T10:30:43;18.90;50.90
49385;DHT22;36795;45.028;38.968;2022-12-18T10:33:31;18.70;51.20
49385;DHT22;36795;45.028;38.968;2022-12-18T10:36:18;18.60;51.60
49385;DHT22;36795;45.028;38.968;2022-12-18T10:39:22;18.50;51.80
49385;DHT22;36795;45.028;38.968;2022-12-18T10:42:17;18.40;52.10
49385;DHT22;36795;45.028;38.968;2022-12-18T10:45:15;18.30;52.50
49385;DHT22;36795;45.028;38.968;2022-12-18T10:48:01;18.20;52.90
49385;DHT22;36795;45.028;38.968;2022-12-18T10:50:50;18.10;53.20
49385;DHT22;36795;45.028;38.968;2022-12-18T10:53:38;18.10;53.80
49385;DHT22;36795;45.028;38.968;2022-12-18T10:56:27;18.00;54.50
49385;DHT22;36795;45.028;38.968;2022-12-18T10:59:16;17.90;55.40
49385;DHT22;36795;45.028;38.968;2022-12-18T11:02:35;17.80;55.50
49385;DHT22;36795;45.028;38.968;2022-12-18T11:08:20;17.70;57.20
49385;DHT22;36795;45.028;38.968;2022-12-18T11:11:23;17.60;57.60
49385;DHT22;36795;45.028;38.968;2022-12-18T11:14:18;17.50;58.50
49385;DHT22;36795;45.028;38.968;2022-12-18T11:17:16;17.40;59.50
49385;DHT22;36795;45.028;38.968;2022-12-18T11:20:06;17.30;60.30
49385;DHT22;36795;45.028;38.968;2022-12-18T11:23:21;17.20;60.90
49385;DHT22;36795;45.028;38.968;2022-12-18T11:26:06;17.20;61.50
49385;DHT22;36795;45.028;38.968;2022-12-18T11:29:10;17.00;62.30
49385;DHT22;36795;45.028;38.968;2022-12-18T11:32:35;16.80;63.10
49385;DHT22;36795;45.028;38.968;2022-12-18T11:38:39;16.60;65.40
49385;DHT22;36795;45.028;38.968;2022-12-18T11:41:41;16.50;66.30
49385;DHT22;36795;45.028;38.968;2022-12-18T11:48:04;16.30;67.90
49385;DHT22;36795;45.028;38.968;2022-12-18T11:50:58;16.30;68.40
49385;DHT22;36795;45.028;38.968;2022-12-18T11:53:46;16.20;68.80
49385;DHT22;36795;45.028;38.968;2022-12-18T11:59:55;16.20;71.30
49385;DHT22;36795;45.028;38.968;2022-12-18T12:03:11;16.00;72.10
49385;DHT22;36795;45.028;38.968;2022-12-18T12:06:10;15.90;73.20
49385;DHT22;36795;45.028;38.968;2022-12-18T12:15:35;15.80;76.40
49385;DHT22;36795;45.028;38.968;2022-12-18T12:21:40;15.60;78.00
49385;DHT22;36795;45.028;38.968;2022-12-18T12:36:40;15.30;79.90
49385;DHT22;36795;45.028;38.968;2022-12-18T12:39:37;15.30;80.10
49385;DHT22;36795;45.028;38.968;2022-12-18T12:42:30;15.20;80.20
49385;DHT22;36795;45.028;38.968;2022-12-18T12:48:47;15.10;81.10
49385;DHT22;36795;45.028;38.968;2022-12-18T12:51:39;15.00;81.40
49385;DHT22;36795;45.028;38.968;2022-12-18T12:54:27;14.90;81.80
49385;DHT22;36795;45.028;38.968;2022-12-18T12:57:27;14.80;82.00
49385;DHT22;36795;45.028;38.968;2022-12-18T13:00:18;14.80;82.40
49385;DHT22;36795;45.028;38.968;2022-12-18T13:09:30;14.60;81.90
49385;DHT22;36795;45.028;38.968;2022-12-18T13:12:18;14.50;81.80
49385;DHT22;36795;45.028;38.968;2022-12-18T13:15:44;14.50;81.50
49385;DHT22;36795;45.028;38.968;2022-12-18T13:18:32;14.50;81.30
49385;DHT22;36795;45.028;38.968;2022-12-18T13:21:25;14.30;81.40
49385;DHT22;36795;45.028;38.968;2022-12-18T13:24:25;14.20;81.60
49385;DHT22;36795;45.028;38.968;2022-12-18T13:44:50;13.80;81.50
49385;DHT22;36795;45.028;38.968;2022-12-18T13:47:37;13.70;81.40
49385;DHT22;36795;45.028;38.968;2022-12-18T13:50:25;13.60;81.20
49385;DHT22;36795;45.028;38.968;2022-12-18T13:53:31;13.50;81.30
49385;DHT22;36795;45.028;38.968;2022-12-18T13:56:21;13.30;81.30
49385;DHT22;36795;45.028;38.968;2022-12-18T13:59:20;13.20;81.50
49385;DHT22;36795;45.028;38.968;2022-12-18T14:02:16;13.20;81.60
49385;DHT22;36795;45.028;38.968;2022-12-18T14:05:03;13.10;81.60
49385;DHT22;36795;45.028;38.968;2022-12-18T14:07:49;12.90;81.90
49385;DHT22;36795;45.028;38.968;2022-12-18T14:10:35;12.80;82.50
49385;DHT22;36795;45.028;38.968;2022-12-18T14:13:29;12.70;83.00
49385;DHT22;36795;45.028;38.968;2022-12-18T14:16:17;12.70;83.10
49385;DHT22;36795;45.028;38.968;2022-12-18T14:19:03;12.60;83.10
49385;DHT22;36795;45.028;38.968;2022-12-18T14:21:50;12.50;83.10
49385;DHT22;36795;45.028;38.968;2022-12-18T14:24:36;12.30;83.10
49385;DHT22;36795;45.028;38.968;2022-12-18T14:27:25;12.10;83.30
49385;DHT22;36795;45.028;38.968;2022-12-18T14:33:13;12.00;84.10
49385;DHT22;36795;45.028;38.968;2022-12-18T14:36:05;11.90;84.20
49385;DHT22;36795;45.028;38.968;2022-12-18T14:38:53;12.00;84.00
49385;DHT22;36795;45.028;38.968;2022-12-18T14:41:40;12.00;83.80
49385;DHT22;36795;45.028;38.968;2022-12-18T14:44:27;12.00;83.50
49385;DHT22;36795;45.028;38.968;2022-12-18T14:47:16;11.90;83.40
49385;DHT22;36795;45.028;38.968;2022-12-18T14:50:03;11.90;83.30
49385;DHT22;36795;45.028;38.968;2022-12-18T14:52:49;11.90;83.30
49385;DHT22;36795;45.028;38.968;2022-12-18T14:55:36;11.80;83.20
49385;DHT22;36795;45.028;38.968;2022-12-18T14:58:22;11.80;83.20
49385;DHT22;36795;45.028;38.968;2022-12-18T15:01:18;11.60;83.10
49385;DHT22;36795;45.028;38.968;2022-12-18T15:04:19;11.60;83.00
49385;DHT22;36795;45.028;38.968;2022-12-18T15:07:18;11.40;83.20
49385;DHT22;36795;45.028;38.968;2022-12-18T15:15:45;11.20;83.40
49385;DHT22;36795;45.028;38.968;2022-12-18T15:18:35;11.10;83.70
49385;DHT22;36795;45.028;38.968;2022-12-18T15:21:27;11.00;84.10
49385;DHT22;36795;45.028;38.968;2022-12-18T15:24:27;10.90;84.20
49385;DHT22;36795;45.028;38.968;2022-12-18T15:27:33;10.90;84.20
49385;DHT22;36795;45.028;38.968;2022-12-18T15:30:26;10.90;84.10
49385;DHT22;36795;45.028;38.968;2022-12-18T15:33:29;10.80;84.00
49385;DHT22;36795;45.028;38.968;2022-12-18T15:36:16;10.80;83.90
49385;DHT22;36795;45.028;38.968;2022-12-18T15:39:03;10.80;83.70
49385;DHT22;36795;45.028;38.968;2022-12-18T15:41:49;10.80;83.50
49385;DHT22;36795;45.028;38.968;2022-12-18T15:44:54;10.90;83.30
49385;DHT22;36795;45.028;38.968;2022-12-18T15:47:40;10.80;83.30
49385;DHT22;36795;45.028;38.968;2022-12-18T15:50:29;10.80;82.90
49385;DHT22;36795;45.028;38.968;2022-12-18T15:53:15;10.80;82.90
49385;DHT22;36795;45.028;38.968;2022-12-18T15:56:01;10.70;82.20
49385;DHT22;36795;45.028;38.968;2022-12-18T15:59:14;10.60;82.30
49385;DHT22;36795;45.028;38.968;2022-12-18T16:02:00;10.40;82.50
49385;DHT22;36795;45.028;38.968;2022-12-18T16:04:47;10.40;82.80
49385;DHT22;36795;45.028;38.968;2022-12-18T16:07:33;10.30;83.00
49385;DHT22;36795;45.028;38.968;2022-12-18T16:10:19;10.20;82.90
49385;DHT22;36795;45.028;38.968;2022-12-18T16:13:09;10.20;83.20
49385;DHT22;36795;45.028;38.968;2022-12-18T16:15:56;10.10;83.10
49385;DHT22;36795;45.028;38.968;2022-12-18T16:18:42;10.00;83.20
49385;DHT22;36795;45.028;38.968;2022-12-18T16:21:28;10.00;83.60
49385;DHT22;36795;45.028;38.968;2022-12-18T16:24:20;10.00;83.40
49385;DHT22;36795;45.028;38.968;2022-12-18T16:27:07;9.90;83.60
49385;DHT22;36795;45.028;38.968;2022-12-18T16:29:53;9.90;83.60
49385;DHT22;36795;45.028;38.968;2022-12-18T16:32:39;10.00;83.60
49385;DHT22;36795;45.028;38.968;2022-12-18T16:35:26;10.00;83.50
49385;DHT22;36795;45.028;38.968;2022-12-18T16:38:13;10.00;83.40
49385;DHT22;36795;45.028;38.968;2022-12-18T16:40:59;10.00;82.70
49385;DHT22;36795;45.028;38.968;2022-12-18T16:44:04;9.90;83.00
49385;DHT22;36795;45.028;38.968;2022-12-18T16:46:50;9.80;83.00
49385;DHT22;36795;45.028;38.968;2022-12-18T16:49:36;9.80;83.00
49385;DHT22;36795;45.028;38.968;2022-12-18T16:52:22;9.80;83.20
49385;DHT22;36795;45.028;38.968;2022-12-18T16:55:09;9.70;82.90
49385;DHT22;36795;45.028;38.968;2022-12-18T16:57:54;9.70;82.60
49385;DHT22;36795;45.028;38.968;2022-12-18T17:00:41;9.60;82.10
49385;DHT22;36795;45.028;38.968;2022-12-18T17:03:26;9.50;82.20
49385;DHT22;36795;45.028;38.968;2022-12-18T17:06:13;9.40;82.30
49385;DHT22;36795;45.028;38.968;2022-12-18T17:09:04;9.20;82.40
49385;DHT22;36795;45.028;38.968;2022-12-18T17:11:52;9.20;82.30
49385;DHT22;36795;45.028;38.968;2022-12-18T17:14:38;9.20;82.10
49385;DHT22;36795;45.028;38.968;2022-12-18T17:17:24;9.10;82.20
49385;DHT22;36795;45.028;38.968;2022-12-18T17:20:11;9.00;82.50
49385;DHT22;36795;45.028;38.968;2022-12-18T17:22:58;8.90;82.50
49385;DHT22;36795;45.028;38.968;2022-12-18T17:25:44;8.90;82.80
49385;DHT22;36795;45.028;38.968;2022-12-18T17:28:30;8.80;83.00
49385;DHT22;36795;45.028;38.968;2022-12-18T17:31:20;8.70;83.50
49385;DHT22;36795;45.028;38.968;2022-12-18T17:34:09;8.70;83.60
49385;DHT22;36795;45.028;38.968;2022-12-18T17:36:55;8.60;83.30
49385;DHT22;36795;45.028;38.968;2022-12-18T17:39:42;8.60;83.30
49385;DHT22;36795;45.028;38.968;2022-12-18T17:42:28;8.60;83.10
49385;DHT22;36795;45.028;38.968;2022-12-18T17:45:14;8.50;83.20
49385;DHT22;36795;45.028;38.968;2022-12-18T17:48:00;8.50;83.10
49385;DHT22;36795;45.028;38.968;2022-12-18T17:50:46;8.50;83.10
49385;DHT22;36795;45.028;38.968;2022-12-18T17:53:33;8.50;83.20
49385;DHT22;36795;45.028;38.968;2022-12-18T17:56:21;8.60;82.80
49385;DHT22;36795;45.028;38.968;2022-12-18T17:59:07;8.60;82.80
49385;DHT22;36795;45.028;38.968;2022-12-18T18:01:54;8.60;82.60
49385;DHT22;36795;45.028;38.968;2022-12-18T18:04:41;8.60;82.10
49385;DHT22;36795;45.028;38.968;2022-12-18T18:07:27;8.50;81.90
49385;DHT22;36795;45.028;38.968;2022-12-18T18:10:13;8.50;82.10
49385;DHT22;36795;45.028;38.968;2022-12-18T18:13:01;8.40;81.90
49385;DHT22;36795;45.028;38.968;2022-12-18T18:16:07;8.40;82.20
49385;DHT22;36795;45.028;38.968;2022-12-18T18:18:57;8.30;82.00
49385;DHT22;36795;45.028;38.968;2022-12-18T18:21:46;8.30;82.20
49385;DHT22;36795;45.028;38.968;2022-12-18T18:24:32;8.20;82.30
49385;DHT22;36795;45.028;38.968;2022-12-18T18:27:19;8.20;82.30
49385;DHT22;36795;45.028;38.968;2022-12-18T18:30:05;8.20;82.30
49385;DHT22;36795;45.028;38.968;2022-12-18T18:32:51;8.20;82.30
49385;DHT22;36795;45.028;38.968;2022-12-18T18:35:42;8.20;82.20
49385;DHT22;36795;45.028;38.968;2022-12-18T18:38:28;8.30;82.30
49385;DHT22;36795;45.028;38.968;2022-12-18T18:41:14;8.30;81.80
49385;DHT22;36795;45.028;38.968;2022-12-18T18:44:01;8.30;81.30
49385;DHT22;36795;45.028;38.968;2022-12-18T18:46:47;8.20;81.10
49385;DHT22;36795;45.028;38.968;2022-12-18T18:49:33;8.20;80.60
49385;DHT22;36795;45.028;38.968;2022-12-18T18:52:18;8.20;80.60
49385;DHT22;36795;45.028;38.968;2022-12-18T18:55:05;8.20;80.80
49385;DHT22;36795;45.028;38.968;2022-12-18T18:57:51;8.10;80.90
49385;DHT22;36795;45.028;38.968;2022-12-18T19:00:38;8.10;81.00
49385;DHT22;36795;45.028;38.968;2022-12-18T19:03:24;8.10;80.70
49385;DHT22;36795;45.028;38.968;2022-12-18T19:06:15;8.10;80.20
49385;DHT22;36795;45.028;38.968;2022-12-18T19:09:03;8.10;80.40
49385;DHT22;36795;45.028;38.968;2022-12-18T19:11:51;8.00;80.70
49385;DHT22;36795;45.028;38.968;2022-12-18T19:14:55;8.00;80.50
49385;DHT22;36795;45.028;38.968;2022-12-18T19:17:41;8.00;80.30
49385;DHT22;36795;45.028;38.968;2022-12-18T19:20:27;8.00;80.30